createdAt,value
2023-04-04T00:01:35.663Z,-1.00
2023-04-04T00:04:03.053Z,-1.00
2023-04-04T00:06:30.141Z,-1.00
2023-04-04T00:08:57.575Z,-1.10
2023-04-04T00:11:26.343Z,-1.10
2023-04-04T00:13:53.395Z,-1.20
2023-04-04T00:16:20.412Z,-1.20
2023-04-04T00:18:47.445Z,-1.10
2023-04-04T00:21:14.412Z,-1.00
2023-04-04T00:23:41.451Z,-0.90
2023-04-04T00:26:08.406Z,-0.80
2023-04-04T00:28:36.536Z,-0.80
2023-04-04T00:31:03.611Z,-0.80
2023-04-04T00:33:30.676Z,-0.80
2023-04-04T00:35:57.720Z,-0.70
2023-04-04T00:38:24.864Z,-0.70
2023-04-04T00:40:51.974Z,-0.70
2023-04-04T00:43:19.289Z,-0.70
2023-04-04T00:45:46.904Z,-0.70
2023-04-04T00:48:14.108Z,-0.70
2023-04-04T00:50:41.284Z,-0.60
2023-04-04T00:53:08.718Z,-0.60
2023-04-04T00:55:39.388Z,-0.70
2023-04-04T00:58:06.659Z,-0.70
2023-04-04T01:00:36.016Z,-0.70
2023-04-04T01:03:07.751Z,-0.70
2023-04-04T01:05:46.962Z,-0.70
2023-04-04T01:08:14.607Z,-0.80
2023-04-04T01:10:42.299Z,-0.90
2023-04-04T01:13:09.919Z,-1.10
2023-04-04T01:15:37.012Z,-1.30
2023-04-04T01:18:06.063Z,-1.40
2023-04-04T01:20:36.129Z,-1.50
2023-04-04T01:23:04.787Z,-1.60
2023-04-04T01:25:32.371Z,-1.60
2023-04-04T01:28:04.390Z,-1.70
2023-04-04T01:30:35.507Z,-1.80
2023-04-04T01:33:16.737Z,-1.90
2023-04-04T01:36:02.574Z,-2.00
2023-04-04T01:38:41.648Z,-2.10
2023-04-04T01:41:10.632Z,-2.20
2023-04-04T01:43:46.778Z,-2.20
2023-04-04T01:46:14.793Z,-2.30
2023-04-04T01:48:42.984Z,-2.40
2023-04-04T01:51:10.833Z,-2.40
2023-04-04T01:53:37.814Z,-2.40
2023-04-04T01:56:05.661Z,-2.30
2023-04-04T01:58:34.617Z,-2.30
2023-04-04T02:01:12.874Z,-2.30
2023-04-04T02:03:40.110Z,-2.40
2023-04-04T02:06:08.029Z,-2.40
2023-04-04T02:08:35.249Z,-2.50
2023-04-04T02:11:03.814Z,-2.70
2023-04-04T02:13:31.042Z,-2.80
2023-04-04T02:15:59.667Z,-2.80
2023-04-04T02:18:26.679Z,-2.80
2023-04-04T02:20:57.687Z,-2.90
2023-04-04T02:23:24.899Z,-2.90
2023-04-04T02:25:51.910Z,-2.90
2023-04-04T02:28:19.496Z,-3.00
2023-04-04T02:30:48.130Z,-3.00
2023-04-04T02:33:15.144Z,-3.10
2023-04-04T02:35:42.450Z,-3.10
2023-04-04T02:38:09.496Z,-3.10
2023-04-04T02:40:42.813Z,-3.20
2023-04-04T02:43:10.532Z,-3.20
2023-04-04T02:45:38.619Z,-3.30
2023-04-04T02:48:13.705Z,-3.30
2023-04-04T02:50:47.688Z,-3.30
2023-04-04T02:53:15.544Z,-3.20
2023-04-04T02:55:43.230Z,-3.20
2023-04-04T02:58:10.529Z,-3.10
2023-04-04T03:00:37.771Z,-3.10
2023-04-04T03:03:05.573Z,-3.10
2023-04-04T03:05:37.025Z,-3.20
2023-04-04T03:08:05.027Z,-3.20
2023-04-04T03:10:32.383Z,-3.30
2023-04-04T03:13:00.034Z,-3.20
2023-04-04T03:15:29.225Z,-3.10
2023-04-04T03:18:33.524Z,-3.00
2023-04-04T03:21:01.304Z,-2.90
2023-04-04T03:23:28.296Z,-2.90
2023-04-04T03:25:55.324Z,-2.90
2023-04-04T03:28:22.766Z,-3.00
2023-04-04T03:30:50.254Z,-3.10
2023-04-04T03:33:17.377Z,-3.10
2023-04-04T03:35:44.549Z,-3.20
2023-04-04T03:38:11.720Z,-3.20
2023-04-04T03:40:38.872Z,-3.20
2023-04-04T03:43:11.449Z,-3.30
2023-04-04T03:45:39.339Z,-3.30
2023-04-04T03:48:07.420Z,-3.40
2023-04-04T03:50:36.893Z,-3.30
2023-04-04T03:53:03.925Z,-3.30
2023-04-04T03:55:30.881Z,-3.30
2023-04-04T03:57:59.807Z,-3.30
2023-04-04T04:00:27.162Z,-3.40
2023-04-04T04:02:54.219Z,-3.50
2023-04-04T04:05:21.337Z,-3.50
2023-04-04T04:07:48.369Z,-3.50
2023-04-04T04:10:15.421Z,-3.40
2023-04-04T04:12:42.387Z,-3.30
2023-04-04T04:15:10.242Z,-3.20
2023-04-04T04:17:40.485Z,-3.20
2023-04-04T04:20:09.728Z,-3.10
2023-04-04T04:22:49.671Z,-3.00
2023-04-04T04:25:17.968Z,-3.00
2023-04-04T04:27:57.042Z,-3.10
2023-04-04T04:30:24.778Z,-3.20
2023-04-04T04:32:51.913Z,-3.20
2023-04-04T04:35:22.642Z,-3.20
2023-04-04T04:37:49.793Z,-3.30
2023-04-04T04:40:26.241Z,-3.30
2023-04-04T04:43:07.301Z,-3.20
2023-04-04T04:45:34.295Z,-3.30
2023-04-04T04:48:09.310Z,-3.30
2023-04-04T04:50:47.381Z,-3.30
2023-04-04T04:53:18.811Z,-3.30
2023-04-04T04:55:47.336Z,-3.30
2023-04-04T04:58:17.031Z,-3.30
2023-04-04T05:00:47.637Z,-3.40
2023-04-04T05:03:14.696Z,-3.40
2023-04-04T05:05:48.086Z,-3.40
2023-04-04T05:08:16.132Z,-3.40
2023-04-04T05:11:03.332Z,-3.50
2023-04-04T05:13:32.953Z,-3.50
2023-04-04T05:16:42.966Z,-3.50
2023-04-04T05:19:10.755Z,-3.40
2023-04-04T05:21:44.313Z,-3.50
2023-04-04T05:24:17.440Z,-3.50
2023-04-04T05:26:44.412Z,-3.50
2023-04-04T05:29:11.615Z,-3.50
2023-04-04T05:31:42.815Z,-3.60
2023-04-04T05:34:16.878Z,-3.60
2023-04-04T05:36:44.028Z,-3.60
2023-04-04T05:39:11.132Z,-3.60
2023-04-04T05:41:45.796Z,-3.50
2023-04-04T05:44:16.821Z,-3.50
2023-04-04T05:46:44.021Z,-3.50
2023-04-04T05:49:11.298Z,-3.40
2023-04-04T05:51:42.884Z,-3.40
2023-04-04T05:54:15.610Z,-3.30
2023-04-04T05:56:43.763Z,-3.20
2023-04-04T05:59:18.085Z,-3.20
2023-04-04T06:02:05.217Z,-3.10
2023-04-04T06:04:33.258Z,-2.90
2023-04-04T06:07:02.372Z,-2.90
2023-04-04T06:09:29.426Z,-2.80
2023-04-04T06:11:56.684Z,-2.60
2023-04-04T06:14:23.832Z,-2.50
2023-04-04T06:16:51.499Z,-2.40
2023-04-04T06:19:20.149Z,-2.20
2023-04-04T06:21:48.683Z,-2.00
2023-04-04T06:24:15.782Z,-1.90
2023-04-04T06:26:42.991Z,-1.80
2023-04-04T06:29:10.066Z,-1.70
2023-04-04T06:31:38.787Z,-1.60
2023-04-04T06:34:13.602Z,-1.50
2023-04-04T06:36:52.761Z,-1.40
2023-04-04T06:39:21.384Z,-1.30
2023-04-04T06:41:50.334Z,-1.20
2023-04-04T06:44:22.608Z,-1.20
2023-04-04T06:46:49.683Z,-1.30
2023-04-04T06:49:16.698Z,-1.30
2023-04-04T06:51:44.612Z,-1.30
2023-04-04T06:54:11.679Z,-1.20
2023-04-04T06:56:38.913Z,-1.10
2023-04-04T06:59:06.000Z,-1.00
2023-04-04T07:01:36.524Z,-1.00
2023-04-04T07:04:03.876Z,-0.90
2023-04-04T07:06:31.379Z,-0.80
2023-04-04T07:08:58.396Z,-0.70
2023-04-04T07:11:25.440Z,-0.60
2023-04-04T07:13:52.671Z,-0.60
2023-04-04T07:16:19.741Z,-0.50
2023-04-04T07:18:46.798Z,-0.40
2023-04-04T07:21:13.781Z,-0.30
2023-04-04T07:23:40.889Z,-0.30
2023-04-04T07:26:07.840Z,-0.20
2023-04-04T07:28:34.942Z,-0.20
2023-04-04T07:31:02.111Z,-0.10
2023-04-04T07:33:29.268Z,-0.10
2023-04-04T07:35:56.236Z,0.00
2023-04-04T07:38:23.286Z,0.00
2023-04-04T07:40:50.687Z,0.10
2023-04-04T07:43:17.914Z,0.20
2023-04-04T07:45:44.989Z,0.30
2023-04-04T07:48:12.089Z,0.40
2023-04-04T07:50:39.337Z,0.60
2023-04-04T07:53:06.682Z,0.70
2023-04-04T07:55:33.664Z,0.80
2023-04-04T07:58:00.986Z,0.90
2023-04-04T08:00:27.951Z,1.00
2023-04-04T08:02:56.618Z,1.10
2023-04-04T08:05:24.020Z,1.10
2023-04-04T08:07:51.061Z,1.20
2023-04-04T08:10:19.306Z,1.30
2023-04-04T08:12:46.378Z,1.40
2023-04-04T08:15:13.438Z,1.40
2023-04-04T08:17:40.856Z,1.50
2023-04-04T08:20:08.152Z,1.50
2023-04-04T08:22:35.172Z,1.60
2023-04-04T08:25:02.178Z,1.70
2023-04-04T08:27:29.225Z,1.80
2023-04-04T08:29:56.481Z,2.10
2023-04-04T08:32:23.820Z,2.20
2023-04-04T08:34:51.273Z,2.40
2023-04-04T08:37:18.493Z,2.50
2023-04-04T08:39:45.503Z,2.70
2023-04-04T08:42:15.144Z,2.80
2023-04-04T08:44:42.013Z,2.80
2023-04-04T08:47:10.798Z,2.90
2023-04-04T08:49:41.444Z,3.10
2023-04-04T08:52:11.635Z,3.30
2023-04-04T08:54:41.137Z,3.50
2023-04-04T08:57:08.576Z,3.70
2023-04-04T08:59:36.298Z,3.90
2023-04-04T09:02:09.608Z,4.10
2023-04-04T09:04:37.243Z,4.40
2023-04-04T09:07:05.342Z,4.60
2023-04-04T09:09:33.618Z,4.70
2023-04-04T09:12:05.005Z,4.90
2023-04-04T09:14:33.569Z,5.10
2023-04-04T09:17:00.795Z,5.30
2023-04-04T09:19:27.905Z,5.40
2023-04-04T09:21:55.140Z,5.60
2023-04-04T09:24:22.120Z,5.60
2023-04-04T09:26:54.033Z,5.70
2023-04-04T09:29:22.030Z,5.80
2023-04-04T09:31:49.741Z,5.50
2023-04-04T09:34:19.176Z,5.20
2023-04-04T09:36:46.832Z,5.20
2023-04-04T09:39:17.713Z,5.00
2023-04-04T09:41:46.013Z,5.10
2023-04-04T09:44:13.953Z,5.20
2023-04-04T09:46:41.741Z,5.20
2023-04-04T09:49:19.698Z,5.10
2023-04-04T09:51:52.676Z,5.20
2023-04-04T09:54:29.396Z,5.50
2023-04-04T09:56:57.926Z,5.80
2023-04-04T09:59:25.058Z,6.00
2023-04-04T10:01:55.296Z,6.20
2023-04-04T10:04:24.732Z,6.40
2023-04-04T10:06:54.146Z,6.60
2023-04-04T10:09:22.150Z,6.70
2023-04-04T10:11:49.559Z,6.80
2023-04-04T10:14:17.155Z,6.90
2023-04-04T10:16:45.957Z,6.90
2023-04-04T10:19:15.499Z,6.70
2023-04-04T10:21:43.096Z,6.80
2023-04-04T10:24:10.419Z,7.10
2023-04-04T10:26:37.795Z,7.40
2023-04-04T10:29:06.163Z,7.70
2023-04-04T10:31:36.519Z,7.90
2023-04-04T10:34:24.512Z,8.00
2023-04-04T10:36:54.572Z,8.10
2023-04-04T10:39:36.546Z,7.90
2023-04-04T10:42:06.843Z,7.80
2023-04-04T10:44:39.004Z,7.90
2023-04-04T10:47:19.787Z,8.10
2023-04-04T10:49:48.288Z,8.20
2023-04-04T10:52:18.333Z,8.50
2023-04-04T10:54:46.305Z,8.80
2023-04-04T10:57:16.948Z,9.00
2023-04-04T11:00:11.290Z,9.10
2023-04-04T11:02:53.459Z,9.10
2023-04-04T11:05:42.081Z,8.90
2023-04-04T11:08:24.388Z,8.90
2023-04-04T11:10:53.333Z,9.10
2023-04-04T11:13:41.801Z,9.30
2023-04-04T11:16:15.648Z,9.50
2023-04-04T11:18:43.738Z,9.70
2023-04-04T11:21:27.964Z,10.00
2023-04-04T11:23:54.929Z,10.20
2023-04-04T11:26:28.081Z,10.50
2023-04-04T11:29:03.770Z,10.50
2023-04-04T11:31:50.819Z,10.40
2023-04-04T11:34:31.952Z,9.60
2023-04-04T11:37:02.057Z,8.50
2023-04-04T11:39:33.297Z,7.80
2023-04-04T11:42:08.249Z,7.30
2023-04-04T11:44:56.447Z,6.90
2023-04-04T11:47:25.056Z,6.50
2023-04-04T11:49:54.015Z,6.30
2023-04-04T11:52:21.378Z,6.20
2023-04-04T11:54:49.173Z,6.30
2023-04-04T11:57:18.179Z,6.50
2023-04-04T11:59:47.107Z,6.80
2023-04-04T12:03:12.460Z,7.10
2023-04-04T12:05:41.257Z,7.40
2023-04-04T12:08:10.330Z,8.00
2023-04-04T12:10:39.429Z,8.30
2023-04-04T12:13:07.975Z,8.70
2023-04-04T12:15:36.641Z,9.20
2023-04-04T12:18:08.020Z,9.30
2023-04-04T12:20:38.806Z,9.20
2023-04-04T12:23:05.837Z,9.10
2023-04-04T12:25:34.335Z,8.70
2023-04-04T12:28:04.543Z,8.30
2023-04-04T12:30:32.368Z,7.90
2023-04-04T12:32:59.657Z,7.70
2023-04-04T12:35:26.645Z,7.60
2023-04-04T12:38:07.633Z,7.50
2023-04-04T12:40:37.516Z,7.70
2023-04-04T12:43:17.646Z,8.10
2023-04-04T12:45:44.954Z,8.20
2023-04-04T12:48:14.283Z,8.00
2023-04-04T12:51:00.769Z,7.80
2023-04-04T12:53:30.189Z,7.60
2023-04-04T12:56:00.944Z,7.50
2023-04-04T12:58:28.632Z,7.90
2023-04-04T13:00:59.455Z,8.20
2023-04-04T13:03:28.833Z,8.00
2023-04-04T13:05:55.925Z,7.90
2023-04-04T13:08:23.136Z,7.60
2023-04-04T13:10:59.972Z,7.10
2023-04-04T13:13:41.410Z,7.00
2023-04-04T13:16:30.132Z,6.90
2023-04-04T13:18:57.449Z,7.20
2023-04-04T13:21:26.221Z,7.50
2023-04-04T13:23:53.424Z,7.90
2023-04-04T13:26:21.703Z,7.90
2023-04-04T13:28:48.767Z,7.80
2023-04-04T13:31:16.402Z,7.70
2023-04-04T13:33:43.714Z,8.00
2023-04-04T13:36:10.920Z,8.50
2023-04-04T13:38:38.627Z,8.90
2023-04-04T13:41:05.797Z,9.40
2023-04-04T13:43:32.922Z,9.50
2023-04-04T13:46:00.011Z,9.70
2023-04-04T13:48:27.236Z,9.30
2023-04-04T13:51:32.188Z,8.80
2023-04-04T13:53:59.205Z,8.60
2023-04-04T13:56:26.285Z,8.80
2023-04-04T13:58:54.057Z,9.00
2023-04-04T14:01:23.168Z,9.00
2023-04-04T14:03:50.305Z,9.00
2023-04-04T14:06:17.434Z,8.90
2023-04-04T14:08:45.682Z,9.10
2023-04-04T14:11:13.826Z,9.30
2023-04-04T14:13:40.860Z,9.50
2023-04-04T14:16:08.671Z,9.60
2023-04-04T14:18:35.834Z,9.80
2023-04-04T14:21:03.790Z,10.10
2023-04-04T14:23:31.160Z,10.40
2023-04-04T14:25:58.621Z,10.50
2023-04-04T14:28:25.743Z,10.40
2023-04-04T14:30:52.722Z,10.10
2023-04-04T14:33:19.714Z,9.40
2023-04-04T14:35:46.667Z,8.90
2023-04-04T14:38:13.673Z,8.70
2023-04-04T14:40:40.742Z,8.60
2023-04-04T14:43:07.886Z,8.70
2023-04-04T14:45:34.983Z,8.90
2023-04-04T14:48:02.172Z,9.20
2023-04-04T14:50:29.328Z,9.40
2023-04-04T14:52:56.813Z,9.60
2023-04-04T14:55:41.754Z,9.60
2023-04-04T14:58:09.246Z,9.80
2023-04-04T15:00:36.303Z,9.70
2023-04-04T15:03:05.620Z,9.00
2023-04-04T15:05:33.592Z,8.30
2023-04-04T15:08:00.578Z,7.80
2023-04-04T15:10:27.614Z,7.30
2023-04-04T15:12:55.404Z,6.80
2023-04-04T15:15:23.808Z,6.30
2023-04-04T15:17:51.902Z,6.10
2023-04-04T15:20:19.600Z,5.90
2023-04-04T15:22:46.954Z,5.70
2023-04-04T15:25:14.029Z,5.60
2023-04-04T15:28:33.308Z,5.70
2023-04-04T15:31:03.329Z,6.00
2023-04-04T15:33:30.296Z,6.40
2023-04-04T15:35:57.410Z,6.80
2023-04-04T15:38:24.474Z,6.90
2023-04-04T15:40:51.480Z,7.20
2023-04-04T15:43:48.852Z,7.40
2023-04-04T15:46:15.958Z,7.20
2023-04-04T15:48:42.909Z,6.90
2023-04-04T15:51:10.268Z,6.60
2023-04-04T15:53:39.318Z,6.50
2023-04-04T16:00:10.465Z,6.20
2023-04-04T16:02:38.157Z,6.40
2023-04-04T16:05:06.215Z,6.60
2023-04-04T16:07:33.206Z,6.70
2023-04-04T16:10:00.941Z,6.60
2023-04-04T16:12:31.320Z,6.60
2023-04-04T16:14:58.341Z,6.70
2023-04-04T16:17:26.335Z,6.70
2023-04-04T16:19:54.044Z,6.70
2023-04-04T16:22:21.387Z,6.80
2023-04-04T16:24:48.663Z,6.80
2023-04-04T16:27:16.004Z,6.70
2023-04-04T16:29:42.967Z,6.40
2023-04-04T16:32:10.494Z,6.10
2023-04-04T16:35:29.005Z,5.90
2023-04-04T16:37:56.007Z,5.70
2023-04-04T16:40:23.015Z,5.50
2023-04-04T16:42:50.084Z,5.50
2023-04-04T16:45:50.187Z,5.50
2023-04-04T16:48:17.212Z,5.40
2023-04-04T16:50:44.533Z,5.20
2023-04-04T16:53:11.934Z,5.00
2023-04-04T16:55:38.881Z,4.70
2023-04-04T16:58:06.077Z,4.50
2023-04-04T17:00:33.505Z,4.30
2023-04-04T17:03:00.790Z,4.20
2023-04-04T17:05:27.827Z,4.20
2023-04-04T17:07:54.842Z,4.00
2023-04-04T17:10:21.787Z,4.00
2023-04-04T17:12:48.767Z,3.90
2023-04-04T17:15:17.304Z,3.90
2023-04-04T17:17:45.538Z,3.90
2023-04-04T17:20:17.697Z,4.00
2023-04-04T17:22:45.935Z,3.90
2023-04-04T17:25:12.986Z,3.70
2023-04-04T17:27:39.992Z,3.60
2023-04-04T17:30:08.552Z,3.60
2023-04-04T17:32:35.990Z,3.60
2023-04-04T17:35:03.021Z,3.60
2023-04-04T17:37:31.058Z,3.70
2023-04-04T17:40:00.047Z,3.70
2023-04-04T17:42:27.300Z,3.70
2023-04-04T17:44:54.461Z,3.50
2023-04-04T17:47:21.417Z,3.30
2023-04-04T17:49:51.209Z,3.20
2023-04-04T17:52:19.412Z,3.00
2023-04-04T17:54:52.461Z,2.90
2023-04-04T17:57:19.996Z,2.90
2023-04-04T17:59:48.510Z,2.80
2023-04-04T18:02:16.469Z,2.80
2023-04-04T18:04:43.401Z,2.70
2023-04-04T18:07:14.548Z,2.70
2023-04-04T18:09:41.928Z,2.70
2023-04-04T18:12:09.838Z,2.70
2023-04-04T18:14:37.057Z,2.80
2023-04-04T18:17:55.186Z,2.90
2023-04-04T18:20:34.079Z,3.00
2023-04-04T18:23:39.651Z,3.00
2023-04-04T18:26:08.529Z,3.00
2023-04-04T18:28:45.747Z,3.00
2023-04-04T18:31:12.908Z,2.90
2023-04-04T18:33:40.010Z,2.80
2023-04-04T18:36:08.113Z,2.60
2023-04-04T18:38:35.804Z,2.40
2023-04-04T18:41:03.785Z,2.20
2023-04-04T18:43:30.788Z,2.10
2023-04-04T18:45:58.192Z,2.00
2023-04-04T18:49:04.465Z,1.90
2023-04-04T18:51:31.643Z,1.70
2023-04-04T18:53:58.715Z,1.60
2023-04-04T18:56:26.444Z,1.60
2023-04-04T18:58:53.904Z,1.60
2023-04-04T19:01:21.062Z,1.50
2023-04-04T19:03:48.587Z,1.40
2023-04-04T19:06:16.354Z,1.30
2023-04-04T19:08:44.328Z,1.30
2023-04-04T19:11:12.751Z,1.30
2023-04-04T19:13:39.914Z,1.30
2023-04-04T19:16:07.384Z,1.30
2023-04-04T19:18:34.404Z,1.20
2023-04-04T19:25:25.967Z,1.20
2023-04-04T19:27:53.360Z,1.10
2023-04-04T19:30:50.341Z,1.10
2023-04-04T19:33:21.031Z,1.10
2023-04-04T19:35:54.253Z,1.00
2023-04-04T19:38:24.595Z,1.10
2023-04-04T19:41:01.556Z,1.10
2023-04-04T19:43:30.549Z,1.00
2023-04-04T19:45:59.229Z,0.90
2023-04-04T19:48:51.590Z,0.80
2023-04-04T19:51:18.448Z,0.80
2023-04-04T19:53:47.072Z,0.90
2023-04-04T19:56:16.219Z,0.90
2023-04-04T19:58:44.070Z,0.90
2023-04-04T20:01:21.168Z,0.90
2023-04-04T20:03:48.768Z,0.80
2023-04-04T20:06:28.080Z,0.80
2023-04-04T20:08:56.406Z,0.70
2023-04-04T20:11:31.161Z,0.60
2023-04-04T20:14:00.133Z,0.60
2023-04-04T20:16:28.502Z,0.50
2023-04-04T20:19:00.747Z,0.50
2023-04-04T20:21:31.576Z,0.50
2023-04-04T20:24:10.054Z,0.50
2023-04-04T20:26:41.374Z,0.40
2023-04-04T20:29:15.786Z,0.40
2023-04-04T20:31:48.435Z,0.50
2023-04-04T20:34:41.749Z,0.50
2023-04-04T20:37:20.034Z,0.50
2023-04-04T20:40:46.611Z,0.50
2023-04-04T20:43:23.540Z,0.60
2023-04-04T20:45:51.155Z,0.60
2023-04-04T20:48:37.869Z,0.70
2023-04-04T20:51:24.039Z,0.80
2023-04-04T20:53:52.741Z,0.80
2023-04-04T20:56:42.226Z,0.90
2023-04-04T21:02:41.454Z,0.70
2023-04-04T21:05:36.156Z,0.70
2023-04-04T21:08:08.249Z,0.60
2023-04-04T21:11:01.188Z,0.60
2023-04-04T21:13:34.004Z,0.60
2023-04-04T21:16:04.130Z,0.60
2023-04-04T21:18:48.606Z,0.60
2023-04-04T21:21:17.804Z,0.70
2023-04-04T21:23:59.259Z,0.60
2023-04-04T21:26:34.824Z,0.60
2023-04-04T21:29:07.869Z,0.60
2023-04-04T21:31:41.305Z,0.60
2023-04-04T21:38:34.786Z,0.50
2023-04-04T21:41:16.636Z,0.50
2023-04-04T21:43:43.524Z,0.40
2023-04-04T21:46:10.969Z,0.40
2023-04-04T21:48:37.978Z,0.40
2023-04-04T21:51:05.470Z,0.40
2023-04-04T21:53:32.501Z,0.40
2023-04-04T21:55:59.447Z,0.40
2023-04-04T21:58:26.636Z,0.40
2023-04-04T22:00:53.651Z,0.40
2023-04-04T22:03:20.679Z,0.40
2023-04-04T22:06:39.685Z,0.40
2023-04-04T22:09:06.959Z,0.50
2023-04-04T22:11:35.018Z,0.50
2023-04-04T22:14:07.668Z,0.50
2023-04-04T22:16:40.266Z,0.50
2023-04-04T22:19:07.823Z,0.50
2023-04-04T22:21:37.091Z,0.40
2023-04-04T22:24:06.131Z,0.40
2023-04-04T22:30:52.956Z,0.50
2023-04-04T22:33:20.047Z,0.40
2023-04-04T22:35:46.936Z,0.40
2023-04-04T22:38:14.793Z,0.40
2023-04-04T22:40:43.021Z,0.40
2023-04-04T22:43:10.015Z,0.40
2023-04-04T22:45:37.306Z,0.40
2023-04-04T22:48:04.496Z,0.40
2023-04-04T22:50:31.537Z,0.40
2023-04-04T22:52:58.917Z,0.40
2023-04-04T22:55:27.007Z,0.40
2023-04-04T22:57:54.008Z,0.40
2023-04-04T23:00:21.007Z,0.30
2023-04-04T23:02:49.979Z,0.20
2023-04-04T23:05:17.915Z,0.00
2023-04-04T23:07:46.572Z,0.00
2023-04-04T23:10:16.032Z,0.00
2023-04-04T23:12:42.962Z,0.00
2023-04-04T23:15:10.304Z,0.00
2023-04-04T23:17:38.917Z,0.00
2023-04-04T23:20:09.987Z,-0.10
2023-04-04T23:22:38.370Z,-0.10
2023-04-04T23:25:07.792Z,-0.10
2023-04-04T23:27:34.924Z,-0.20
2023-04-04T23:30:24.174Z,-0.10
2023-04-04T23:32:51.243Z,0.00
2023-04-04T23:35:18.306Z,0.00
2023-04-04T23:37:45.892Z,0.00
2023-04-04T23:40:13.232Z,0.00
2023-04-04T23:42:40.804Z,0.00
2023-04-04T23:45:08.947Z,-0.10
2023-04-04T23:47:37.100Z,-0.10
2023-04-04T23:50:04.407Z,0.00
2023-04-04T23:52:31.532Z,0.00
2023-04-04T23:54:58.464Z,0.00
2023-04-04T23:57:25.428Z,0.00
2023-04-04T23:59:52.405Z,0.00
